sensor_id;sensor_type;location;lat;lon;timestamp;pressure;altitude;pressure_sealevel;temperature;humidity
62864;BME280;48954;59.950;11.014;2023-05-23T00:58:25;99565.87;;;13.56;74.37
62864;BME280;48954;59.950;11.014;2023-05-23T01:01:00;99561.42;;;13.54;74.47
62864;BME280;48954;59.950;11.014;2023-05-23T01:03:42;99560.23;;;13.54;74.63
62864;BME280;48954;59.950;11.014;2023-05-23T01:06:11;99560.06;;;13.50;74.55
62864;BME280;48954;59.950;11.014;2023-05-23T01:08:37;99559.88;;;13.46;74.63
62864;BME280;48954;59.950;11.014;2023-05-23T01:17:19;99550.19;;;13.39;74.86
62864;BME280;48954;59.950;11.014;2023-05-23T01:20:03;99546.63;;;13.36;74.71
62864;BME280;48954;59.950;11.014;2023-05-23T01:22:58;99545.59;;;13.35;74.94
62864;BME280;48954;59.950;11.014;2023-05-23T01:25:46;99542.80;;;13.32;75.08
62864;BME280;48954;59.950;11.014;2023-05-23T01:28:16;99543.81;;;13.31;75.20
62864;BME280;48954;59.950;11.014;2023-05-23T01:30:45;99534.08;;;13.27;75.15
62864;BME280;48954;59.950;11.014;2023-05-23T01:33:17;99536.92;;;13.28;75.29
62864;BME280;48954;59.950;11.014;2023-05-23T01:39:01;99535.08;;;13.25;75.48
62864;BME280;48954;59.950;11.014;2023-05-23T01:41:48;99530.33;;;13.22;75.61
62864;BME280;48954;59.950;11.014;2023-05-23T01:44:25;99532.14;;;13.20;75.62
62864;BME280;48954;59.950;11.014;2023-05-23T01:46:56;99527.01;;;13.19;75.72
62864;BME280;48954;59.950;11.014;2023-05-23T01:49:40;99531.95;;;13.18;75.88
62864;BME280;48954;59.950;11.014;2023-05-23T01:52:17;99531.01;;;13.18;75.97
62864;BME280;48954;59.950;11.014;2023-05-23T01:54:48;99529.42;;;13.17;75.94
62864;BME280;48954;59.950;11.014;2023-05-23T01:57:21;99526.00;;;13.15;75.90
62864;BME280;48954;59.950;11.014;2023-05-23T01:59:48;99524.34;;;13.14;75.91
62864;BME280;48954;59.950;11.014;2023-05-23T02:02:14;99519.80;;;13.13;76.09
62864;BME280;48954;59.950;11.014;2023-05-23T02:04:43;99516.64;;;13.11;76.13
62864;BME280;48954;59.950;11.014;2023-05-23T02:07:19;99513.72;;;13.11;76.13
62864;BME280;48954;59.950;11.014;2023-05-23T02:09:47;99513.64;;;13.10;76.31
62864;BME280;48954;59.950;11.014;2023-05-23T02:12:15;99513.09;;;13.09;76.19
62864;BME280;48954;59.950;11.014;2023-05-23T02:14:45;99509.85;;;13.09;76.34
62864;BME280;48954;59.950;11.014;2023-05-23T02:17:11;99503.59;;;13.07;76.47
62864;BME280;48954;59.950;11.014;2023-05-23T02:19:38;99502.98;;;13.08;76.54
62864;BME280;48954;59.950;11.014;2023-05-23T02:22:04;99502.56;;;13.06;76.35
62864;BME280;48954;59.950;11.014;2023-05-23T02:24:31;99499.46;;;13.03;76.47
62864;BME280;48954;59.950;11.014;2023-05-23T02:27:01;99503.88;;;13.05;76.53
62864;BME280;48954;59.950;11.014;2023-05-23T02:29:27;99502.98;;;13.01;76.45
62864;BME280;48954;59.950;11.014;2023-05-23T02:31:54;99500.91;;;13.00;76.44
62864;BME280;48954;59.950;11.014;2023-05-23T02:34:23;99501.46;;;12.98;76.56
62864;BME280;48954;59.950;11.014;2023-05-23T02:36:50;99495.86;;;12.96;76.69
62864;BME280;48954;59.950;11.014;2023-05-23T02:39:16;99494.98;;;12.96;76.84
62864;BME280;48954;59.950;11.014;2023-05-23T02:41:43;99491.98;;;12.95;76.76
62864;BME280;48954;59.950;11.014;2023-05-23T02:44:09;99491.88;;;12.93;76.79
62864;BME280;48954;59.950;11.014;2023-05-23T02:46:36;99493.44;;;12.91;76.90
62864;BME280;48954;59.950;11.014;2023-05-23T02:49:06;99492.09;;;12.91;76.90
62864;BME280;48954;59.950;11.014;2023-05-23T02:51:32;99495.32;;;12.90;76.92
62864;BME280;48954;59.950;11.014;2023-05-23T02:54:00;99492.86;;;12.88;77.06
62864;BME280;48954;59.950;11.014;2023-05-23T02:56:27;99494.83;;;12.88;77.06
62864;BME280;48954;59.950;11.014;2023-05-23T02:58:56;99487.39;;;12.86;76.98
62864;BME280;48954;59.950;11.014;2023-05-23T03:01:22;99485.49;;;12.83;76.99
62864;BME280;48954;59.950;11.014;2023-05-23T03:03:49;99491.08;;;12.82;77.05
62864;BME280;48954;59.950;11.014;2023-05-23T03:06:16;99490.59;;;12.81;77.27
62864;BME280;48954;59.950;11.014;2023-05-23T03:08:43;99484.13;;;12.81;77.36
62864;BME280;48954;59.950;11.014;2023-05-23T03:11:10;99485.48;;;12.83;77.47
62864;BME280;48954;59.950;11.014;2023-05-23T03:13:37;99478.23;;;12.83;77.47
62864;BME280;48954;59.950;11.014;2023-05-23T03:16:04;99481.98;;;12.81;77.47
62864;BME280;48954;59.950;11.014;2023-05-23T03:18:32;99480.41;;;12.80;77.65
62864;BME280;48954;59.950;11.014;2023-05-23T03:21:20;99477.03;;;12.81;77.67
62864;BME280;48954;59.950;11.014;2023-05-23T03:24:21;99478.64;;;12.78;77.64
62864;BME280;48954;59.950;11.014;2023-05-23T04:53:50;99431.79;;;13.25;77.50
62864;BME280;48954;59.950;11.014;2023-05-23T05:00:26;99424.77;;;13.33;77.50
62864;BME280;48954;59.950;11.014;2023-05-23T05:02:52;99420.27;;;13.36;77.39
62864;BME280;48954;59.950;11.014;2023-05-23T05:05:19;99413.66;;;13.41;77.46
62864;BME280;48954;59.950;11.014;2023-05-23T05:07:46;99417.95;;;13.44;77.22
62864;BME280;48954;59.950;11.014;2023-05-23T05:10:13;99412.84;;;13.49;77.43
62864;BME280;48954;59.950;11.014;2023-05-23T05:12:40;99406.77;;;13.52;77.57
62864;BME280;48954;59.950;11.014;2023-05-23T05:15:07;99405.67;;;13.54;77.44
62864;BME280;48954;59.950;11.014;2023-05-23T05:17:34;99401.50;;;13.55;77.53
62864;BME280;48954;59.950;11.014;2023-05-23T05:20:00;99397.95;;;13.56;77.64
62864;BME280;48954;59.950;11.014;2023-05-23T05:22:26;99404.53;;;13.59;77.81
62864;BME280;48954;59.950;11.014;2023-05-23T05:24:54;99399.02;;;13.62;77.85
62864;BME280;48954;59.950;11.014;2023-05-23T05:27:24;99401.06;;;13.65;77.80
62864;BME280;48954;59.950;11.014;2023-05-23T05:29:50;99407.89;;;13.69;77.96
62864;BME280;48954;59.950;11.014;2023-05-23T05:32:28;99410.04;;;13.73;77.95
62864;BME280;48954;59.950;11.014;2023-05-23T05:34:56;99404.20;;;13.78;77.95
62864;BME280;48954;59.950;11.014;2023-05-23T05:37:25;99409.04;;;13.82;77.78
62864;BME280;48954;59.950;11.014;2023-05-23T05:39:53;99412.15;;;13.87;77.88
62864;BME280;48954;59.950;11.014;2023-05-23T05:42:21;99411.05;;;13.92;78.01
62864;BME280;48954;59.950;11.014;2023-05-23T05:44:48;99414.79;;;13.98;77.91
62864;BME280;48954;59.950;11.014;2023-05-23T05:47:15;99412.73;;;14.01;77.85
62864;BME280;48954;59.950;11.014;2023-05-23T05:49:41;99416.55;;;14.07;77.85
62864;BME280;48954;59.950;11.014;2023-05-23T05:52:08;99418.78;;;14.12;77.76
62864;BME280;48954;59.950;11.014;2023-05-23T05:54:35;99415.62;;;14.18;77.78
62864;BME280;48954;59.950;11.014;2023-05-23T05:57:01;99417.78;;;14.24;77.78
62864;BME280;48954;59.950;11.014;2023-05-23T05:59:28;99415.58;;;14.30;77.67
62864;BME280;48954;59.950;11.014;2023-05-23T06:01:58;99415.59;;;14.36;77.65
62864;BME280;48954;59.950;11.014;2023-05-23T06:04:25;99418.39;;;14.43;77.64
62864;BME280;48954;59.950;11.014;2023-05-23T06:06:51;99424.23;;;14.43;77.05
62864;BME280;48954;59.950;11.014;2023-05-23T06:09:18;99431.27;;;14.40;76.75
62864;BME280;48954;59.950;11.014;2023-05-23T06:11:44;99438.28;;;14.38;76.54
62864;BME280;48954;59.950;11.014;2023-05-23T06:14:11;99439.64;;;14.39;76.62
62864;BME280;48954;59.950;11.014;2023-05-23T06:16:37;99439.65;;;14.44;76.44
62864;BME280;48954;59.950;11.014;2023-05-23T06:19:04;99430.74;;;14.52;76.54
62864;BME280;48954;59.950;11.014;2023-05-23T06:21:31;99425.38;;;14.64;76.39
62864;BME280;48954;59.950;11.014;2023-05-23T06:23:57;99428.94;;;14.79;76.57
62864;BME280;48954;59.950;11.014;2023-05-23T06:26:24;99413.67;;;14.94;76.47
62864;BME280;48954;59.950;11.014;2023-05-23T06:28:51;99415.95;;;15.13;76.60
62864;BME280;48954;59.950;11.014;2023-05-23T06:31:19;99426.69;;;15.25;76.05
62864;BME280;48954;59.950;11.014;2023-05-23T06:33:45;99427.61;;;15.37;75.92
62864;BME280;48954;59.950;11.014;2023-05-23T06:36:11;99427.67;;;15.47;75.46
62864;BME280;48954;59.950;11.014;2023-05-23T06:38:38;99426.48;;;15.54;75.10
62864;BME280;48954;59.950;11.014;2023-05-23T06:41:04;99422.82;;;15.61;74.96
62864;BME280;48954;59.950;11.014;2023-05-23T06:43:31;99427.86;;;15.72;74.93
62864;BME280;48954;59.950;11.014;2023-05-23T06:45:58;99426.79;;;15.83;75.05
62864;BME280;48954;59.950;11.014;2023-05-23T06:48:24;99427.47;;;15.92;74.58
62864;BME280;48954;59.950;11.014;2023-05-23T06:50:51;99427.98;;;15.99;74.40
62864;BME280;48954;59.950;11.014;2023-05-23T06:53:17;99429.40;;;15.99;73.93
62864;BME280;48954;59.950;11.014;2023-05-23T06:55:44;99426.23;;;15.98;73.68
62864;BME280;48954;59.950;11.014;2023-05-23T06:58:10;99424.19;;;15.97;73.80
62864;BME280;48954;59.950;11.014;2023-05-23T07:00:37;99426.72;;;15.97;73.83
62864;BME280;48954;59.950;11.014;2023-05-23T07:03:05;99432.98;;;15.98;73.56
62864;BME280;48954;59.950;11.014;2023-05-23T07:05:32;99431.98;;;15.95;73.42
62864;BME280;48954;59.950;11.014;2023-05-23T07:07:59;99428.58;;;15.92;73.35
62864;BME280;48954;59.950;11.014;2023-05-23T07:10:25;99425.09;;;15.89;73.08
62864;BME280;48954;59.950;11.014;2023-05-23T07:12:51;99427.23;;;15.88;73.15
62864;BME280;48954;59.950;11.014;2023-05-23T07:15:19;99426.36;;;15.90;73.15
62864;BME280;48954;59.950;11.014;2023-05-23T07:17:45;99423.03;;;15.92;73.22
62864;BME280;48954;59.950;11.014;2023-05-23T07:20:12;99427.27;;;15.98;73.17
62864;BME280;48954;59.950;11.014;2023-05-23T07:22:38;99425.98;;;16.05;73.10
62864;BME280;48954;59.950;11.014;2023-05-23T07:25:05;99426.83;;;16.09;72.84
62864;BME280;48954;59.950;11.014;2023-05-23T07:27:32;99436.63;;;16.11;72.59
62864;BME280;48954;59.950;11.014;2023-05-23T07:29:58;99436.48;;;16.11;72.51
62864;BME280;48954;59.950;11.014;2023-05-23T07:32:25;99434.88;;;16.14;72.49
62864;BME280;48954;59.950;11.014;2023-05-23T07:34:51;99437.00;;;16.19;72.27
62864;BME280;48954;59.950;11.014;2023-05-23T07:37:18;99432.52;;;16.25;72.45
62864;BME280;48954;59.950;11.014;2023-05-23T07:39:44;99441.23;;;16.30;72.34
62864;BME280;48954;59.950;11.014;2023-05-23T07:42:10;99444.08;;;16.30;72.07
62864;BME280;48954;59.950;11.014;2023-05-23T07:44:37;99448.45;;;16.26;71.67
62864;BME280;48954;59.950;11.014;2023-05-23T07:47:04;99458.91;;;16.25;71.89
62864;BME280;48954;59.950;11.014;2023-05-23T07:49:30;99460.14;;;16.34;72.06
62864;BME280;48954;59.950;11.014;2023-05-23T07:51:57;99453.34;;;16.46;72.13
62864;BME280;48954;59.950;11.014;2023-05-23T07:54:24;99456.10;;;16.49;72.05
62864;BME280;48954;59.950;11.014;2023-05-23T07:56:54;99453.59;;;16.56;71.88
62864;BME280;48954;59.950;11.014;2023-05-23T07:59:22;99459.48;;;16.68;71.96
62864;BME280;48954;59.950;11.014;2023-05-23T08:01:49;99459.34;;;16.76;71.82
62864;BME280;48954;59.950;11.014;2023-05-23T08:04:16;99456.36;;;16.85;71.47
62864;BME280;48954;59.950;11.014;2023-05-23T08:06:43;99459.44;;;16.87;69.72
62864;BME280;48954;59.950;11.014;2023-05-23T08:09:09;99462.23;;;16.87;68.66
62864;BME280;48954;59.950;11.014;2023-05-23T08:11:36;99459.73;;;16.89;67.91
62864;BME280;48954;59.950;11.014;2023-05-23T08:14:02;99464.63;;;16.89;67.27
62864;BME280;48954;59.950;11.014;2023-05-23T08:16:29;99466.70;;;16.91;67.15
62864;BME280;48954;59.950;11.014;2023-05-23T08:19:00;99469.57;;;16.89;65.83
62864;BME280;48954;59.950;11.014;2023-05-23T08:21:27;99474.14;;;16.82;65.17
62864;BME280;48954;59.950;11.014;2023-05-23T08:23:53;99477.98;;;16.77;65.35
62864;BME280;48954;59.950;11.014;2023-05-23T08:26:20;99483.83;;;16.72;65.28
62864;BME280;48954;59.950;11.014;2023-05-23T08:28:46;99482.11;;;16.67;65.30
62864;BME280;48954;59.950;11.014;2023-05-23T08:31:13;99479.75;;;16.61;65.02
62864;BME280;48954;59.950;11.014;2023-05-23T08:33:39;99480.48;;;16.58;64.91
62864;BME280;48954;59.950;11.014;2023-05-23T08:36:06;99474.53;;;16.55;64.92
62864;BME280;48954;59.950;11.014;2023-05-23T08:38:33;99480.63;;;16.59;65.01
62864;BME280;48954;59.950;11.014;2023-05-23T08:41:00;99481.66;;;16.58;64.32
62864;BME280;48954;59.950;11.014;2023-05-23T08:43:27;99482.69;;;16.60;64.37
62864;BME280;48954;59.950;11.014;2023-05-23T08:45:54;99483.61;;;16.66;64.04
62864;BME280;48954;59.950;11.014;2023-05-23T08:48:21;99483.43;;;16.72;64.21
62864;BME280;48954;59.950;11.014;2023-05-23T08:50:49;99485.02;;;16.82;64.22
62864;BME280;48954;59.950;11.014;2023-05-23T08:53:17;99484.64;;;16.92;64.02
62864;BME280;48954;59.950;11.014;2023-05-23T08:55:46;99485.17;;;17.02;63.19
62864;BME280;48954;59.950;11.014;2023-05-23T08:58:14;99486.89;;;17.06;62.67
62864;BME280;48954;59.950;11.014;2023-05-23T09:00:41;99487.85;;;17.05;61.82
62864;BME280;48954;59.950;11.014;2023-05-23T09:05:33;99499.02;;;17.11;61.51
62864;BME280;48954;59.950;11.014;2023-05-23T09:08:00;99502.41;;;17.13;61.66
62864;BME280;48954;59.950;11.014;2023-05-23T09:10:26;99504.46;;;17.13;61.03
62864;BME280;48954;59.950;11.014;2023-05-23T09:12:53;99504.75;;;17.07;60.79
62864;BME280;48954;59.950;11.014;2023-05-23T09:15:20;99506.51;;;17.05;60.96
62864;BME280;48954;59.950;11.014;2023-05-23T09:17:46;99512.38;;;17.06;60.75
62864;BME280;48954;59.950;11.014;2023-05-23T09:20:16;99511.28;;;17.03;60.38
62864;BME280;48954;59.950;11.014;2023-05-23T09:22:47;99510.10;;;17.02;60.19
62864;BME280;48954;59.950;11.014;2023-05-23T09:25:14;99509.92;;;17.06;60.37
62864;BME280;48954;59.950;11.014;2023-05-23T09:27:41;99511.65;;;17.07;59.31
62864;BME280;48954;59.950;11.014;2023-05-23T09:30:09;99516.52;;;17.06;59.53
62864;BME280;48954;59.950;11.014;2023-05-23T09:32:36;99517.48;;;17.12;59.53
62864;BME280;48954;59.950;11.014;2023-05-23T09:35:04;99522.98;;;17.30;59.76
62864;BME280;48954;59.950;11.014;2023-05-23T09:37:36;99522.30;;;17.52;59.12
62864;BME280;48954;59.950;11.014;2023-05-23T09:40:07;99525.16;;;17.73;58.63
62864;BME280;48954;59.950;11.014;2023-05-23T09:42:34;99523.19;;;17.95;58.59
62864;BME280;48954;59.950;11.014;2023-05-23T09:45:01;99527.11;;;18.11;58.37
62864;BME280;48954;59.950;11.014;2023-05-23T09:47:27;99521.52;;;18.20;57.60
62864;BME280;48954;59.950;11.014;2023-05-23T09:49:54;99523.98;;;18.33;58.24
62864;BME280;48954;59.950;11.014;2023-05-23T09:52:21;99524.39;;;18.40;58.11
62864;BME280;48954;59.950;11.014;2023-05-23T09:54:47;99529.67;;;18.43;57.49
62864;BME280;48954;59.950;11.014;2023-05-23T09:57:15;99532.02;;;18.40;56.86
62864;BME280;48954;59.950;11.014;2023-05-23T09:59:44;99529.39;;;18.33;55.63
62864;BME280;48954;59.950;11.014;2023-05-23T10:02:15;99534.64;;;18.28;55.83
62864;BME280;48954;59.950;11.014;2023-05-23T10:04:42;99536.52;;;18.35;55.81
62864;BME280;48954;59.950;11.014;2023-05-23T10:07:12;99533.75;;;18.34;54.41
62864;BME280;48954;59.950;11.014;2023-05-23T10:09:41;99536.09;;;18.39;55.10
62864;BME280;48954;59.950;11.014;2023-05-23T10:12:40;99536.58;;;18.44;54.57
62864;BME280;48954;59.950;11.014;2023-05-23T10:15:08;99538.91;;;18.42;54.04
62864;BME280;48954;59.950;11.014;2023-05-23T10:20:15;99535.85;;;18.64;53.53
62864;BME280;48954;59.950;11.014;2023-05-23T10:22:43;99535.80;;;18.85;53.35
62864;BME280;48954;59.950;11.014;2023-05-23T10:25:09;99538.88;;;18.93;53.05
62864;BME280;48954;59.950;11.014;2023-05-23T10:27:39;99547.69;;;18.87;52.72
62864;BME280;48954;59.950;11.014;2023-05-23T10:30:09;99544.91;;;18.88;52.75
62864;BME280;48954;59.950;11.014;2023-05-23T10:32:37;99543.73;;;18.98;52.41
62864;BME280;48954;59.950;11.014;2023-05-23T10:35:20;99544.04;;;18.88;51.46
62864;BME280;48954;59.950;11.014;2023-05-23T10:38:01;99545.22;;;18.60;51.45
62864;BME280;48954;59.950;11.014;2023-05-23T10:41:00;99552.36;;;18.35;52.02
62864;BME280;48954;59.950;11.014;2023-05-23T10:43:49;99551.23;;;18.23;52.60
62864;BME280;48954;59.950;11.014;2023-05-23T10:46:21;99555.16;;;18.13;52.40
62864;BME280;48954;59.950;11.014;2023-05-23T10:48:53;99559.88;;;17.97;52.24
62864;BME280;48954;59.950;11.014;2023-05-23T10:51:20;99568.29;;;17.83;52.51
62864;BME280;48954;59.950;11.014;2023-05-23T10:53:52;99568.08;;;17.72;52.61
62864;BME280;48954;59.950;11.014;2023-05-23T10:56:21;99570.67;;;17.65;52.64
62864;BME280;48954;59.950;11.014;2023-05-23T10:58:53;99577.30;;;17.51;52.59
62864;BME280;48954;59.950;11.014;2023-05-23T11:01:20;99576.13;;;17.39;52.50
62864;BME280;48954;59.950;11.014;2023-05-23T11:09:11;99582.56;;;16.93;54.38
62864;BME280;48954;59.950;11.014;2023-05-23T11:11:50;99595.45;;;16.73;54.87
62864;BME280;48954;59.950;11.014;2023-05-23T11:14:17;99594.79;;;16.57;55.46
62864;BME280;48954;59.950;11.014;2023-05-23T11:16:44;99597.30;;;16.46;55.87
62864;BME280;48954;59.950;11.014;2023-05-23T11:21:44;99601.83;;;16.36;56.54
62864;BME280;48954;59.950;11.014;2023-05-23T11:24:11;99603.48;;;16.39;56.80
62864;BME280;48954;59.950;11.014;2023-05-23T11:26:38;99606.90;;;16.45;57.11
62864;BME280;48954;59.950;11.014;2023-05-23T11:29:08;99600.20;;;16.49;56.99
62864;BME280;48954;59.950;11.014;2023-05-23T11:31:38;99601.61;;;16.58;57.08
62864;BME280;48954;59.950;11.014;2023-05-23T11:34:05;99606.90;;;16.69;57.14
62864;BME280;48954;59.950;11.014;2023-05-23T11:36:32;99604.30;;;16.78;57.07
62864;BME280;48954;59.950;11.014;2023-05-23T11:39:02;99601.29;;;16.77;55.81
62864;BME280;48954;59.950;11.014;2023-05-23T11:41:29;99605.58;;;16.78;56.14
62864;BME280;48954;59.950;11.014;2023-05-23T11:43:56;99604.61;;;16.82;55.80
62864;BME280;48954;59.950;11.014;2023-05-23T11:46:23;99607.38;;;16.86;55.06
62864;BME280;48954;59.950;11.014;2023-05-23T11:48:49;99613.87;;;16.87;54.02
62864;BME280;48954;59.950;11.014;2023-05-23T11:51:16;99611.51;;;16.85;53.83
62864;BME280;48954;59.950;11.014;2023-05-23T11:53:42;99615.02;;;16.93;53.75
62864;BME280;48954;59.950;11.014;2023-05-23T11:56:09;99611.39;;;17.01;53.84
62864;BME280;48954;59.950;11.014;2023-05-23T11:58:37;99609.86;;;17.09;53.21
62864;BME280;48954;59.950;11.014;2023-05-23T12:01:06;99613.30;;;17.14;52.64
62864;BME280;48954;59.950;11.014;2023-05-23T12:03:34;99616.13;;;17.19;52.26
62864;BME280;48954;59.950;11.014;2023-05-23T12:06:10;99612.40;;;17.19;52.03
62864;BME280;48954;59.950;11.014;2023-05-23T12:08:37;99611.02;;;17.25;52.32
62864;BME280;48954;59.950;11.014;2023-05-23T12:11:04;99607.70;;;17.33;52.02
62864;BME280;48954;59.950;11.014;2023-05-23T12:13:31;99608.75;;;17.42;52.31
62864;BME280;48954;59.950;11.014;2023-05-23T12:15:59;99602.48;;;17.51;51.55
62864;BME280;48954;59.950;11.014;2023-05-23T12:18:28;99603.77;;;17.60;51.16
62864;BME280;48954;59.950;11.014;2023-05-23T12:20:54;99605.10;;;17.73;51.26
62864;BME280;48954;59.950;11.014;2023-05-23T12:23:25;99606.84;;;17.98;50.81
62864;BME280;48954;59.950;11.014;2023-05-23T12:25:53;99603.84;;;18.27;51.56
62864;BME280;48954;59.950;11.014;2023-05-23T12:28:22;99602.38;;;18.51;52.14
62864;BME280;48954;59.950;11.014;2023-05-23T12:31:10;99606.96;;;18.74;52.30
62864;BME280;48954;59.950;11.014;2023-05-23T12:33:38;99603.34;;;18.83;51.84
62864;BME280;48954;59.950;11.014;2023-05-23T12:36:05;99603.38;;;18.86;51.83
62864;BME280;48954;59.950;11.014;2023-05-23T12:38:36;99599.48;;;18.91;51.84
62864;BME280;48954;59.950;11.014;2023-05-23T12:41:09;99601.58;;;18.89;51.72
62864;BME280;48954;59.950;11.014;2023-05-23T12:43:40;99607.80;;;18.82;51.56
62864;BME280;48954;59.950;11.014;2023-05-23T12:46:07;99607.13;;;18.73;51.33
62864;BME280;48954;59.950;11.014;2023-05-23T12:48:33;99604.67;;;18.67;51.26
62864;BME280;48954;59.950;11.014;2023-05-23T12:51:00;99608.34;;;18.59;51.01
62864;BME280;48954;59.950;11.014;2023-05-23T12:53:26;99609.10;;;18.54;51.23
62864;BME280;48954;59.950;11.014;2023-05-23T12:55:53;99611.85;;;18.49;51.02
62864;BME280;48954;59.950;11.014;2023-05-23T12:58:19;99611.52;;;18.45;50.92
62864;BME280;48954;59.950;11.014;2023-05-23T13:00:46;99613.96;;;18.39;50.61
62864;BME280;48954;59.950;11.014;2023-05-23T13:03:12;99615.30;;;18.28;50.42
62864;BME280;48954;59.950;11.014;2023-05-23T13:05:39;99615.55;;;18.25;50.53
62864;BME280;48954;59.950;11.014;2023-05-23T13:08:05;99619.33;;;18.22;50.28
62864;BME280;48954;59.950;11.014;2023-05-23T13:10:32;99613.14;;;18.20;49.95
62864;BME280;48954;59.950;11.014;2023-05-23T13:12:58;99614.67;;;18.18;49.70
62864;BME280;48954;59.950;11.014;2023-05-23T13:15:25;99614.51;;;18.18;49.72
62864;BME280;48954;59.950;11.014;2023-05-23T13:17:51;99612.86;;;18.25;50.21
62864;BME280;48954;59.950;11.014;2023-05-23T13:20:18;99615.96;;;18.30;49.63
62864;BME280;48954;59.950;11.014;2023-05-23T13:22:44;99616.45;;;18.32;49.67
62864;BME280;48954;59.950;11.014;2023-05-23T13:25:11;99621.30;;;18.37;49.66
62864;BME280;48954;59.950;11.014;2023-05-23T13:27:43;99614.62;;;18.38;49.26
62864;BME280;48954;59.950;11.014;2023-05-23T13:30:16;99618.52;;;18.37;49.24
62864;BME280;48954;59.950;11.014;2023-05-23T13:32:42;99614.52;;;18.47;49.23
62864;BME280;48954;59.950;11.014;2023-05-23T13:35:09;99615.28;;;18.55;48.98
62864;BME280;48954;59.950;11.014;2023-05-23T13:37:36;99617.25;;;18.51;49.03
62864;BME280;48954;59.950;11.014;2023-05-23T13:40:03;99618.19;;;18.45;48.96
62864;BME280;48954;59.950;11.014;2023-05-23T13:42:30;99619.70;;;18.39;48.99
62864;BME280;48954;59.950;11.014;2023-05-23T13:44:57;99623.96;;;18.34;49.05
62864;BME280;48954;59.950;11.014;2023-05-23T13:47:24;99623.00;;;18.48;49.33
62864;BME280;48954;59.950;11.014;2023-05-23T13:49:50;99628.45;;;18.75;49.40
62864;BME280;48954;59.950;11.014;2023-05-23T13:52:17;99622.70;;;18.99;49.06
62864;BME280;48954;59.950;11.014;2023-05-23T13:54:43;99627.94;;;19.23;48.56
62864;BME280;48954;59.950;11.014;2023-05-23T13:57:10;99632.79;;;19.40;48.33
62864;BME280;48954;59.950;11.014;2023-05-23T13:59:36;99628.37;;;19.48;47.54
62864;BME280;48954;59.950;11.014;2023-05-23T14:02:03;99636.12;;;19.41;47.07
62864;BME280;48954;59.950;11.014;2023-05-23T14:04:31;99636.36;;;19.25;46.87
62864;BME280;48954;59.950;11.014;2023-05-23T14:06:57;99635.48;;;19.19;47.22
62864;BME280;48954;59.950;11.014;2023-05-23T14:09:24;99634.76;;;19.25;47.32
62864;BME280;48954;59.950;11.014;2023-05-23T14:11:50;99631.48;;;19.32;47.37
62864;BME280;48954;59.950;11.014;2023-05-23T14:14:17;99635.09;;;19.34;46.80
62864;BME280;48954;59.950;11.014;2023-05-23T14:16:43;99637.85;;;19.26;47.01
62864;BME280;48954;59.950;11.014;2023-05-23T14:19:10;99633.86;;;19.26;47.46
62864;BME280;48954;59.950;11.014;2023-05-23T14:21:37;99633.43;;;19.39;47.29
62864;BME280;48954;59.950;11.014;2023-05-23T14:24:03;99638.80;;;19.49;46.97
62864;BME280;48954;59.950;11.014;2023-05-23T14:26:30;99639.27;;;19.55;47.02
62864;BME280;48954;59.950;11.014;2023-05-23T14:28:57;99640.44;;;19.52;46.91
62864;BME280;48954;59.950;11.014;2023-05-23T14:31:23;99640.58;;;19.41;46.77
62864;BME280;48954;59.950;11.014;2023-05-23T14:33:50;99648.73;;;19.29;46.74
62864;BME280;48954;59.950;11.014;2023-05-23T14:36:16;99650.92;;;19.20;46.91
62864;BME280;48954;59.950;11.014;2023-05-23T14:38:48;99654.49;;;19.10;47.26
62864;BME280;48954;59.950;11.014;2023-05-23T14:41:14;99659.16;;;19.00;47.45
62864;BME280;48954;59.950;11.014;2023-05-23T14:43:41;99661.63;;;18.89;47.65
62864;BME280;48954;59.950;11.014;2023-05-23T14:46:07;99661.25;;;18.74;47.64
62864;BME280;48954;59.950;11.014;2023-05-23T14:48:34;99658.73;;;18.57;47.67
62864;BME280;48954;59.950;11.014;2023-05-23T14:51:01;99664.90;;;18.44;47.73
62864;BME280;48954;59.950;11.014;2023-05-23T14:53:27;99666.27;;;18.35;48.17
62864;BME280;48954;59.950;11.014;2023-05-23T14:55:54;99667.69;;;18.29;48.19
62864;BME280;48954;59.950;11.014;2023-05-23T14:58:21;99667.66;;;18.25;48.38
62864;BME280;48954;59.950;11.014;2023-05-23T15:00:48;99674.26;;;18.16;48.46
62864;BME280;48954;59.950;11.014;2023-05-23T15:03:14;99673.95;;;18.07;48.52
62864;BME280;48954;59.950;11.014;2023-05-23T15:05:41;99682.52;;;17.99;48.80
62864;BME280;48954;59.950;11.014;2023-05-23T15:08:07;99685.08;;;17.88;49.20
62864;BME280;48954;59.950;11.014;2023-05-23T15:10:34;99690.30;;;17.72;49.88
62864;BME280;48954;59.950;11.014;2023-05-23T15:13:00;99689.39;;;17.51;50.48
62864;BME280;48954;59.950;11.014;2023-05-23T15:15:27;99692.08;;;17.27;51.12
62864;BME280;48954;59.950;11.014;2023-05-23T15:17:54;99699.66;;;17.05;51.76
62864;BME280;48954;59.950;11.014;2023-05-23T15:20:20;99708.88;;;16.83;52.18
62864;BME280;48954;59.950;11.014;2023-05-23T15:22:47;99715.04;;;16.60;52.72
62864;BME280;48954;59.950;11.014;2023-05-23T15:25:14;99714.69;;;16.33;53.52
62864;BME280;48954;59.950;11.014;2023-05-23T15:27:40;99719.23;;;16.11;54.46
62864;BME280;48954;59.950;11.014;2023-05-23T15:30:07;99726.60;;;15.93;55.47
62864;BME280;48954;59.950;11.014;2023-05-23T15:32:34;99736.98;;;15.76;55.96
62864;BME280;48954;59.950;11.014;2023-05-23T15:35:00;99741.31;;;15.61;57.09
62864;BME280;48954;59.950;11.014;2023-05-23T15:37:27;99748.92;;;15.43;57.59
62864;BME280;48954;59.950;11.014;2023-05-23T15:39:54;99749.10;;;15.24;58.07
62864;BME280;48954;59.950;11.014;2023-05-23T15:42:21;99753.21;;;15.04;58.57
62864;BME280;48954;59.950;11.014;2023-05-23T15:44:47;99756.79;;;14.88;59.47
62864;BME280;48954;59.950;11.014;2023-05-23T15:47:14;99759.41;;;14.75;60.17